Flugplatz Segelfluggelände Isny-Rotmoos (UL)

Hier findest Du alle Informationen zum Flugplatz Segelfluggelände Isny-Rotmoos (UL).

Informationen für Piloten zum Flugplatz Segelfluggelände Isny-Rotmoos

Hier findest Du alle relevanten Informationen, die Du als Pilot benötigst, um Segelfluggelände Isny-Rotmoos anzufliegen.

Flugplatz: Segelfluggelände Isny-Rotmoos ICAO-Code: UL Flugplatz
Frequenz Turm: 123.500 Mhz GAFOR Gebiet: -
Frequenz Ground: 123.500 Mhz Mogas: nein
Platzrunde: N 0 ft Landegebühr: -
Platzhöhe: - Sunrise: 04:04 Uhr UTC
Pisten: 07/25 - 455 m x 30 m, GRAS Sunset: 18:46 Uhr UTC

Flugwetter am Flugplatz Segelfluggelände Isny-Rotmoos

Die METAR Information stammen aus EDNY (38.14 km entfernt).

METAR Code:
2022/07/20 15:20
EDNY 201520Z 13004KT CAVOK 32/15 Q1016

Flugschulen am Flugplatz Segelfluggelände Isny-Rotmoos

Am Flugplatz Segelfluggelände Isny-Rotmoos gibt es leider keine Flugschule.

Benachbarte Flugplätze und Flugschulen

Es gibt 14 weitere Flugplätze in einem Umkreis von 50 km um den Flugplatz Segelfluggelände Isny-Rotmoos.

Jetzt anmelden

Passwort vergessen

Umfrage Archiv

Sendet Ihr ADS-B und/oder FLARM?

Ja
83.2 %
Nein
16.8 %
Stimmen: 197 | Diskussion
Anzeige: Roland Aircraft
Statistik Alle Mitglieder

Aktuell sind 57 Besucher online.

Anzeige: ULPower Aero Engines Anzeige: Pocket FMS